Latest Coastal Weather Observations for Point Fawcett

IDD60701

Issued at 7:21 pm CST Thursday 25 August 2016 (issued every 10 minutes, with the page automatically refreshed every 10 minutes)

About coastal observations | Map of coastal stations | Coastal observations for NT | Marine services | Other Formats
Station Details ID: 200731 Name: POINT FAWCETT Lat: -11.76 Lon: 130.03 Height: 6.5 m
Data from the previous 72 hours. | See also: Recent months at Point Fawcett
Date/Time
CST
Temp
°C
Wind Pressure Rain since
9am
mm
Weather Cloud Vis
km
Sea
Height
m
Swell
Dir  Spd
kts
Gust
kts
hPa Trend Height
m
Period
s
Dir
25/07:00pm 26.4 SSW 4 6 1010.2 - 0.0 - - - - - - -
25/06:30pm 28.0 SSW 5 7 1009.9 - 0.0 - - - - - - -
25/06:00pm 28.9 SSW 6 11 1009.6 - 0.0 - - - - - - -
25/05:30pm 29.4 SSW 7 12 1009.3 - 0.0 - - - - - - -
25/05:00pm 30.3 SSW 8 11 1009.1 - 0.0 - - - - - - -
25/04:30pm 30.3 SSW 8 11 1008.9 - 0.0 - - - - - - -
25/04:00pm 30.0 SSW 9 13 1008.8 - 0.0 - - - - - - -
25/03:30pm 31.0 SW 8 12 1008.9 - 0.0 - - - - - - -
25/03:00pm 30.2 SSW 8 12 1009.1 - 0.0 - - - - - - -
25/02:30pm 31.3 SW 8 14 1009.5 - 0.0 - - - - - - -
25/02:00pm 31.5 SSW 7 11 1009.8 - 0.0 - - - - - - -
25/01:30pm 31.7 SSW 7 11 1010.2 - 0.0 - - - - - - -
25/01:00pm 31.1 S 6 12 1010.7 - 0.0 - - - - - - -
25/12:30pm 29.9 S 7 12 1011.0 - 0.0 - - - - - - -
25/12:00pm 30.0 S 7 18 1011.4 - 0.0 - - - - - - -
25/11:30am 30.9 SSW 9 15 1011.6 - 0.0 - - - - - - -
25/11:00am 30.6 SSW 8 11 1011.8 - 0.0 - - - - - - -
25/10:30am 30.4 SW 8 11 1012.0 - 0.0 - - - - - - -
25/10:00am 30.1 SW 6 10 1012.0 - 0.0 - - - - - - -
25/09:30am 29.8 SSW 6 9 1011.9 - 0.0 - - - - - - -
25/09:00am 29.0 SW 5 8 1011.7 - 0.0 - - - - - - -
25/08:30am 27.9 SSW 5 7 1011.5 - 0.0 - - - - - - -
25/08:00am 24.6 S 4 6 1011.2 - 0.0 - - - - - - -
25/07:30am 22.2 S 3 4 1010.9 - 0.0 - - - - - - -
25/07:00am 22.5 CALM 0 0 1010.6 - 0.0 - - - - - - -
25/06:30am 23.2 CALM 0 0 1010.1 - 0.0 - - - - - - -
25/06:00am 23.2 CALM 0 0 1009.8 - 0.0 - - - - - - -
25/05:30am 22.9 CALM 0 0 1009.6 - 0.0 - - - - - - -
25/05:00am 23.1 SSW 1 4 1009.2 - 0.0 - - - - - - -
25/04:30am 22.7 CALM 0 0 1009.0 - 0.0 - - - - - - -
25/04:00am 22.2 CALM 0 0 1009.1 - 0.0 - - - - - - -
25/03:30am 22.4 CALM 0 0 1009.2 - 0.0 - - - - - - -
25/03:00am 23.1 CALM 0 0 1009.4 - 0.0 - - - - - - -
25/02:30am 23.5 CALM 0 0 1009.6 - 0.0 - - - - - - -
25/02:00am 24.2 CALM 0 0 1009.7 - 0.0 - - - - - - -
25/01:30am 24.9 CALM 0 0 1010.1 - 0.0 - - - - - - -
25/01:00am 25.7 CALM 0 3 1010.5 - 0.0 - - - - - - -
25/12:30am 26.6 SSW 4 6 1010.8 - 0.0 - - - - - - -
25/12:00am 27.0 SW 5 7 1011.0 - 0.0 - - - - - - -
 
Date/Time
CST
Temp
°C
Wind Pressure Rain since
9am
mm
Weather Cloud Vis
km
Sea
Height
m
Swell
Dir  Spd
kts
Gust
kts
hPa Trend Height
m
Period
s
Dir
24/11:30pm 27.0 SW 6 7 1011.0 - 0.0 - - - - - - -
24/11:00pm 27.0 SSW 5 8 1011.1 - 0.0 - - - - - - -
24/10:30pm 26.7 SSW 5 7 1010.8 - 0.0 - - - - - - -
24/10:00pm 26.9 SSW 6 11 1010.8 - 0.0 - - - - - - -
24/09:30pm 27.0 SSW 5 8 1010.7 - 0.0 - - - - - - -
24/09:00pm 27.2 SSW 5 8 1010.4 - 0.0 - - - - - - -
24/08:30pm 27.2 SSW 5 8 1010.0 - 0.0 - - - - - - -
24/08:00pm 27.3 SSW 5 9 1009.8 - 0.0 - - - - - - -
24/07:30pm 27.5 SSW 7 11 1009.5 - 0.0 - - - - - - -
24/07:00pm 27.7 SW 8 11 1009.3 - 0.0 - - - - - - -
24/06:30pm 27.9 SW 7 11 1009.0 - 0.0 - - - - - - -
24/06:00pm 28.5 SW 8 11 1008.7 - 0.0 - - - - - - -
24/05:30pm 29.5 SW 9 12 1008.6 - 0.0 - - - - - - -
24/05:00pm 30.0 SW 8 13 1008.3 - 0.0 - - - - - - -
24/04:30pm 30.1 SW 9 13 1008.0 - 0.0 - - - - - - -
24/04:00pm 30.7 SW 9 13 1007.9 - 0.0 - - - - - - -
24/03:30pm 30.9 SW 8 12 1008.1 - 0.0 - - - - - - -
24/03:00pm 31.2 WSW 7 10 1008.4 - 0.0 - - - - - - -
24/02:30pm 31.1 WSW 7 11 1008.8 - 0.0 - - - - - - -
24/02:00pm 31.4 W 7 9 1009.1 - 0.0 - - - - - - -
24/01:30pm 30.2 W 7 9 1009.5 - 0.0 - - - - - - -
24/01:00pm 30.1 W 5 7 1009.7 - 0.0 - - - - - - -
24/12:30pm 29.6 W 5 7 1010.2 - 0.0 - - - - - - -
24/12:00pm 30.4 WNW 6 8 1010.8 - 0.0 - - - - - - -
24/11:30am 29.5 NW 5 6 1011.1 - 0.0 - - - - - - -
24/11:00am 30.0 NNW 5 7 1011.5 - 0.0 - - - - - - -
24/10:30am 29.5 N 4 6 1011.6 - 0.0 - - - - - - -
24/10:00am 29.4 N 4 6 1011.9 - 0.0 - - - - - - -
24/09:30am 28.2 NNW 3 4 1011.7 - 0.0 - - - - - - -
24/09:00am 27.6 CALM 0 3 1011.7 - 0.0 - - - - - - -
24/08:30am 25.4 CALM 0 0 1011.6 - 0.0 - - - - - - -
24/08:00am 23.6 CALM 0 0 1011.5 - 0.0 - - - - - - -
24/07:30am 20.9 S 2 3 1011.2 - 0.0 - - - - - - -
24/07:00am 20.1 S 3 4 1010.9 - 0.0 - - - - - - -
24/06:30am 20.3 S 3 4 1010.6 - 0.0 - - - - - - -
24/06:00am 20.7 S 4 4 1010.3 - 0.0 - - - - - - -
24/05:30am 21.2 S 4 4 1010.3 - 0.0 - - - - - - -
24/05:00am 21.6 S 4 4 1009.9 - 0.0 - - - - - - -
24/04:30am 21.6 S 3 4 1009.9 - 0.0 - - - - - - -
24/04:00am 21.0 S 4 5 1009.7 - 0.0 - - - - - - -
24/03:30am 21.3 S 4 5 1009.6 - 0.0 - - - - - - -
24/03:00am 21.2 S 3 4 1009.6 - 0.0 - - - - - - -
24/02:30am 21.0 S 3 4 1009.6 - 0.0 - - - - - - -
24/02:00am 21.5 S 3 4 1009.7 - 0.0 - - - - - - -
24/01:30am 22.3 S 3 4 1009.8 - 0.0 - - - - - - -
24/01:00am 22.6 W 2 4 1009.8 - 0.0 - - - - - - -
24/12:30am 21.9 CALM 0 0 1009.7 - 0.0 - - - - - - -
24/12:00am 21.9 CALM 0 0 1009.9 - 0.0 - - - - - - -
 
Date/Time
CST
Temp
°C
Wind Pressure Rain since
9am
mm
Weather Cloud Vis
km
Sea
Height
m
Swell
Dir  Spd
kts
Gust
kts
hPa Trend Height
m
Period
s
Dir
23/11:30pm 22.0 CALM 0 0 1009.7 - 0.0 - - - - - - -
23/11:00pm 22.4 W 1 4 1009.8 - 0.0 - - - - - - -
23/10:30pm 23.0 W 3 5 1009.8 - 0.0 - - - - - - -
23/10:00pm 23.0 WSW 1 3 1009.9 - 0.0 - - - - - - -
23/09:30pm 23.7 W 4 6 1009.9 - 0.0 - - - - - - -
23/09:00pm 26.2 W 6 8 1009.7 - 0.0 - - - - - - -
23/08:30pm 26.6 W 7 8 1009.4 - 0.0 - - - - - - -
23/08:00pm 26.5 WNW 6 7 1009.0 - 0.0 - - - - - - -
23/07:30pm 26.7 WNW 7 8 1008.8 - 0.0 - - - - - - -
23/07:00pm 26.9 WNW 6 8 1008.4 - 0.0 - - - - - - -
23/06:30pm 27.6 WNW 6 7 1008.1 - 0.0 - - - - - - -
23/06:00pm 28.7 NW 6 8 1007.9 - 0.0 - - - - - - -
23/05:30pm 29.1 WNW 8 10 1007.8 - 0.0 - - - - - - -
23/05:00pm 29.4 WNW 8 9 1007.7 - 0.0 - - - - - - -
23/04:30pm 30.0 NW 8 11 1007.4 - 0.0 - - - - - - -
23/04:00pm 30.3 NW 8 11 1007.6 - 0.0 - - - - - - -
23/03:30pm 30.2 NW 7 10 1007.7 - 0.0 - - - - - - -
23/03:00pm 31.1 NW 8 10 1008.1 - 0.0 - - - - - - -
23/02:30pm 30.9 NW 8 11 1008.4 - 0.0 - - - - - - -
23/02:00pm 30.8 NW 7 9 1008.9 - 0.0 - - - - - - -
23/01:30pm 29.7 NW 7 10 1009.2 - 0.0 - - - - - - -
23/01:00pm 30.1 NW 7 9 1009.6 - 0.0 - - - - - - -
23/12:30pm 30.1 NW 7 10 1010.0 - 0.0 - - - - - - -
23/12:00pm 29.7 NNW 7 9 1010.6 - 0.0 - - - - - - -
23/11:30am 29.3 NW 7 9 1010.9 - 0.0 - - - - - - -
23/11:00am 29.5 NW 6 8 1011.2 - 0.0 - - - - - - -
23/10:30am 29.3 NW 7 8 1011.3 - 0.0 - - - - - - -
23/10:00am 28.5 NW 7 10 1011.4 - 0.0 - - - - - - -
23/09:30am 28.2 NW 7 9 1011.2 - 0.0 - - - - - - -
23/09:00am 28.0 NW 8 10 1010.9 - 0.0 - - - - - - -
23/08:30am 27.0 NW 8 9 1010.7 - 0.0 - - - - - - -
23/08:00am 26.2 NNW 8 10 1010.4 - 0.0 - - - - - - -
23/07:30am 25.4 NNW 7 9 1010.0 - 0.0 - - - - - - -
23/07:00am 24.9 NNW 7 9 1009.7 - 0.0 - - - - - - -
23/06:30am 21.5 N 4 8 1009.6 - 0.0 - - - - - - -
23/06:00am 21.1 NNE 2 5 1009.2 - 0.0 - - - - - - -
23/05:30am 24.8 N 6 8 1009.1 - 0.0 - - - - - - -
23/05:00am 24.6 NNW 8 11 1009.2 - 0.0 - - - - - - -
23/04:30am 19.9 E 3 5 1009.0 - 0.0 - - - - - - -
23/04:00am 20.7 E 3 4 1008.9 - 0.0 - - - - - - -
23/03:30am 24.4 NNE 6 9 1008.9 - 0.0 - - - - - - -
23/03:00am 24.9 N 6 8 1008.9 - 0.0 - - - - - - -
23/02:30am 23.7 N 5 8 1009.2 - 0.0 - - - - - - -
23/02:00am 24.4 NNW 5 7 1009.5 - 0.0 - - - - - - -
23/01:30am 25.2 NW 6 7 1009.8 - 0.0 - - - - - - -
23/01:00am 25.6 NW 5 7 1010.2 - 0.0 - - - - - - -
23/12:30am 25.8 NW 6 8 1010.5 - 0.0 - - - - - - -
23/12:00am 26.2 WNW 7 8 1010.7 - 0.0 - - - - - - -
 
Date/Time
CST
Temp
°C
Wind Pressure Rain since
9am
mm
Weather Cloud Vis
km
Sea
Height
m
Swell
Dir  Spd
kts
Gust
kts
hPa Trend Height
m
Period
s
Dir
22/11:30pm 25.9 NW 6 8 1010.7 - 0.0 - - - - - - -
22/11:00pm 26.1 W 6 8 1010.6 - 0.0 - - - - - - -
22/10:30pm 26.6 WNW 7 9 1010.6 - 0.0 - - - - - - -
22/10:00pm 26.6 WNW 5 7 1010.5 - 0.0 - - - - - - -
22/09:30pm 26.2 WNW 6 8 1010.3 - 0.0 - - - - - - -
22/09:00pm 26.2 WNW 6 7 1010.0 - 0.0 - - - - - - -
22/08:30pm 26.0 W 6 7 1009.5 - 0.0 - - - - - - -
22/08:00pm 26.5 WNW 7 8 1009.0 - 0.0 - - - - - - -
22/07:30pm 26.6 WNW 7 9 1008.5 - 0.0 - - - - - - -

Other Formats:

Comma delimited format used in spreadsheet applications
http://www.bom.gov.au/fwo/IDD60701/IDD60701.94122.axf

JavaScript Object Notation format (JSON) in row-major order
http://www.bom.gov.au/fwo/IDD60701/IDD60701.94122.json